sensor_id;sensor_type;location;lat;lon;timestamp;P1;durP1;ratioP1;P2;durP2;ratioP2
76591;SDS011;65481;47.600;19.682;2023-04-29T00:03:31;7.63;;;6.00;;
76591;SDS011;65481;47.600;19.682;2023-04-29T00:08:32;7.90;;;5.38;;
76591;SDS011;65481;47.600;19.682;2023-04-29T00:13:32;9.00;;;5.90;;
76591;SDS011;65481;47.600;19.682;2023-04-29T00:18:32;8.07;;;5.95;;
76591;SDS011;65481;47.600;19.682;2023-04-29T00:23:33;10.85;;;6.72;;
76591;SDS011;65481;47.600;19.682;2023-04-29T00:28:34;11.40;;;6.28;;
76591;SDS011;65481;47.600;19.682;2023-04-29T00:33:34;9.88;;;6.65;;
76591;SDS011;65481;47.600;19.682;2023-04-29T00:38:35;11.07;;;6.50;;
76591;SDS011;65481;47.600;19.682;2023-04-29T00:43:35;10.00;;;6.43;;
76591;SDS011;65481;47.600;19.682;2023-04-29T00:48:36;8.93;;;6.88;;
76591;SDS011;65481;47.600;19.682;2023-04-29T00:53:36;9.50;;;6.60;;
76591;SDS011;65481;47.600;19.682;2023-04-29T00:58:38;9.75;;;6.28;;
76591;SDS011;65481;47.600;19.682;2023-04-29T01:03:39;8.55;;;7.00;;
76591;SDS011;65481;47.600;19.682;2023-04-29T01:13:54;10.32;;;6.72;;
76591;SDS011;65481;47.600;19.682;2023-04-29T01:19:05;13.15;;;7.63;;
76591;SDS011;65481;47.600;19.682;2023-04-29T01:24:15;8.98;;;6.65;;
76591;SDS011;65481;47.600;19.682;2023-04-29T01:40:18;11.13;;;8.00;;
76591;SDS011;65481;47.600;19.682;2023-04-29T01:45:25;14.55;;;8.60;;
76591;SDS011;65481;47.600;19.682;2023-04-29T01:50:28;14.60;;;8.45;;
76591;SDS011;65481;47.600;19.682;2023-04-29T01:55:29;12.02;;;7.60;;
76591;SDS011;65481;47.600;19.682;2023-04-29T02:00:29;14.20;;;8.30;;
76591;SDS011;65481;47.600;19.682;2023-04-29T02:05:30;13.98;;;8.85;;
76591;SDS011;65481;47.600;19.682;2023-04-29T02:10:33;14.10;;;9.20;;
76591;SDS011;65481;47.600;19.682;2023-04-29T02:15:33;11.73;;;7.45;;
76591;SDS011;65481;47.600;19.682;2023-04-29T02:20:34;12.18;;;7.63;;
76591;SDS011;65481;47.600;19.682;2023-04-29T02:25:34;13.18;;;8.77;;
76591;SDS011;65481;47.600;19.682;2023-04-29T02:30:35;11.07;;;7.68;;
76591;SDS011;65481;47.600;19.682;2023-04-29T02:35:36;11.00;;;8.05;;
76591;SDS011;65481;47.600;19.682;2023-04-29T02:40:40;12.25;;;8.43;;
76591;SDS011;65481;47.600;19.682;2023-04-29T02:45:41;15.27;;;8.48;;
76591;SDS011;65481;47.600;19.682;2023-04-29T02:50:42;10.43;;;8.00;;
76591;SDS011;65481;47.600;19.682;2023-04-29T02:55:42;13.55;;;8.73;;
76591;SDS011;65481;47.600;19.682;2023-04-29T03:00:43;10.07;;;7.90;;
76591;SDS011;65481;47.600;19.682;2023-04-29T03:05:59;10.38;;;7.72;;
76591;SDS011;65481;47.600;19.682;2023-04-29T03:10:59;12.52;;;7.85;;
76591;SDS011;65481;47.600;19.682;2023-04-29T03:16:00;14.82;;;7.68;;
76591;SDS011;65481;47.600;19.682;2023-04-29T03:21:01;13.77;;;8.40;;
76591;SDS011;65481;47.600;19.682;2023-04-29T03:26:03;12.80;;;7.78;;
76591;SDS011;65481;47.600;19.682;2023-04-29T03:31:04;10.80;;;7.78;;
76591;SDS011;65481;47.600;19.682;2023-04-29T03:36:05;9.82;;;7.93;;
76591;SDS011;65481;47.600;19.682;2023-04-29T03:41:07;14.27;;;9.27;;
76591;SDS011;65481;47.600;19.682;2023-04-29T03:46:08;15.45;;;8.50;;
76591;SDS011;65481;47.600;19.682;2023-04-29T03:51:09;12.10;;;8.25;;
76591;SDS011;65481;47.600;19.682;2023-04-29T03:56:09;12.25;;;8.25;;
76591;SDS011;65481;47.600;19.682;2023-04-29T04:01:10;12.57;;;8.35;;
76591;SDS011;65481;47.600;19.682;2023-04-29T04:06:12;11.07;;;8.45;;
76591;SDS011;65481;47.600;19.682;2023-04-29T04:11:12;11.98;;;8.20;;
76591;SDS011;65481;47.600;19.682;2023-04-29T04:16:14;14.35;;;8.23;;
76591;SDS011;65481;47.600;19.682;2023-04-29T04:21:15;10.85;;;7.68;;
76591;SDS011;65481;47.600;19.682;2023-04-29T04:26:15;10.43;;;7.68;;
76591;SDS011;65481;47.600;19.682;2023-04-29T04:31:16;9.65;;;8.15;;
76591;SDS011;65481;47.600;19.682;2023-04-29T04:36:16;12.93;;;7.95;;
76591;SDS011;65481;47.600;19.682;2023-04-29T04:41:17;11.20;;;7.47;;
76591;SDS011;65481;47.600;19.682;2023-04-29T04:46:17;10.93;;;7.30;;
76591;SDS011;65481;47.600;19.682;2023-04-29T04:51:18;14.23;;;8.38;;
76591;SDS011;65481;47.600;19.682;2023-04-29T04:56:18;12.15;;;7.30;;
76591;SDS011;65481;47.600;19.682;2023-04-29T05:01:19;10.80;;;7.32;;
76591;SDS011;65481;47.600;19.682;2023-04-29T05:06:20;11.07;;;7.15;;
76591;SDS011;65481;47.600;19.682;2023-04-29T05:11:21;8.70;;;6.28;;
76591;SDS011;65481;47.600;19.682;2023-04-29T05:16:21;8.27;;;6.93;;
76591;SDS011;65481;47.600;19.682;2023-04-29T05:21:22;10.43;;;7.93;;
76591;SDS011;65481;47.600;19.682;2023-04-29T05:26:22;10.35;;;6.90;;
76591;SDS011;65481;47.600;19.682;2023-04-29T05:31:23;10.18;;;7.15;;
76591;SDS011;65481;47.600;19.682;2023-04-29T05:36:23;10.40;;;7.60;;
76591;SDS011;65481;47.600;19.682;2023-04-29T05:41:24;10.57;;;7.13;;
76591;SDS011;65481;47.600;19.682;2023-04-29T05:46:24;12.68;;;6.78;;
76591;SDS011;65481;47.600;19.682;2023-04-29T05:51:25;8.63;;;6.57;;
76591;SDS011;65481;47.600;19.682;2023-04-29T05:56:27;8.60;;;6.70;;
76591;SDS011;65481;47.600;19.682;2023-04-29T06:01:27;8.45;;;6.97;;
76591;SDS011;65481;47.600;19.682;2023-04-29T06:06:28;9.70;;;6.70;;
76591;SDS011;65481;47.600;19.682;2023-04-29T06:11:28;9.63;;;5.97;;
76591;SDS011;65481;47.600;19.682;2023-04-29T06:16:29;9.60;;;5.72;;
76591;SDS011;65481;47.600;19.682;2023-04-29T06:21:29;9.43;;;6.38;;
76591;SDS011;65481;47.600;19.682;2023-04-29T06:26:30;11.27;;;6.50;;
76591;SDS011;65481;47.600;19.682;2023-04-29T06:31:31;7.68;;;5.20;;
76591;SDS011;65481;47.600;19.682;2023-04-29T06:36:32;10.95;;;5.95;;
76591;SDS011;65481;47.600;19.682;2023-04-29T06:41:32;8.65;;;5.93;;
76591;SDS011;65481;47.600;19.682;2023-04-29T06:46:33;7.45;;;5.72;;
76591;SDS011;65481;47.600;19.682;2023-04-29T06:51:37;10.50;;;5.93;;
76591;SDS011;65481;47.600;19.682;2023-04-29T06:56:38;11.70;;;6.70;;
76591;SDS011;65481;47.600;19.682;2023-04-29T07:01:38;10.75;;;6.45;;
76591;SDS011;65481;47.600;19.682;2023-04-29T07:06:39;9.98;;;5.93;;
76591;SDS011;65481;47.600;19.682;2023-04-29T07:11:40;8.50;;;6.18;;
76591;SDS011;65481;47.600;19.682;2023-04-29T07:16:41;8.60;;;6.55;;
76591;SDS011;65481;47.600;19.682;2023-04-29T07:21:41;10.00;;;6.47;;
76591;SDS011;65481;47.600;19.682;2023-04-29T07:26:42;8.90;;;6.80;;
76591;SDS011;65481;47.600;19.682;2023-04-29T07:31:44;10.90;;;6.70;;
76591;SDS011;65481;47.600;19.682;2023-04-29T07:36:44;11.80;;;7.45;;
76591;SDS011;65481;47.600;19.682;2023-04-29T07:41:45;10.02;;;6.63;;
76591;SDS011;65481;47.600;19.682;2023-04-29T07:46:45;11.88;;;7.50;;
76591;SDS011;65481;47.600;19.682;2023-04-29T07:51:46;14.32;;;9.18;;
76591;SDS011;65481;47.600;19.682;2023-04-29T07:56:47;18.42;;;11.85;;
76591;SDS011;65481;47.600;19.682;2023-04-29T08:01:47;7.90;;;6.30;;
76591;SDS011;65481;47.600;19.682;2023-04-29T08:06:48;8.20;;;6.25;;
76591;SDS011;65481;47.600;19.682;2023-04-29T08:11:49;22.73;;;10.38;;
76591;SDS011;65481;47.600;19.682;2023-04-29T08:16:49;12.77;;;7.43;;
76591;SDS011;65481;47.600;19.682;2023-04-29T08:21:50;10.52;;;8.48;;
76591;SDS011;65481;47.600;19.682;2023-04-29T08:26:51;11.40;;;7.75;;
76591;SDS011;65481;47.600;19.682;2023-04-29T08:31:52;14.35;;;9.63;;
76591;SDS011;65481;47.600;19.682;2023-04-29T08:36:53;19.85;;;12.05;;
76591;SDS011;65481;47.600;19.682;2023-04-29T08:41:53;13.20;;;9.15;;
76591;SDS011;65481;47.600;19.682;2023-04-29T08:46:56;9.18;;;6.68;;
76591;SDS011;65481;47.600;19.682;2023-04-29T08:51:59;8.40;;;6.13;;
76591;SDS011;65481;47.600;19.682;2023-04-29T08:57:01;7.10;;;5.65;;
76591;SDS011;65481;47.600;19.682;2023-04-29T09:02:05;10.27;;;6.68;;
76591;SDS011;65481;47.600;19.682;2023-04-29T09:07:08;7.65;;;4.82;;
76591;SDS011;65481;47.600;19.682;2023-04-29T09:12:11;6.65;;;4.53;;
76591;SDS011;65481;47.600;19.682;2023-04-29T09:17:11;7.25;;;4.68;;
76591;SDS011;65481;47.600;19.682;2023-04-29T09:22:12;6.32;;;3.90;;
76591;SDS011;65481;47.600;19.682;2023-04-29T09:27:24;8.00;;;4.13;;
76591;SDS011;65481;47.600;19.682;2023-04-29T09:32:26;8.80;;;4.45;;
76591;SDS011;65481;47.600;19.682;2023-04-29T09:37:26;7.88;;;4.63;;
76591;SDS011;65481;47.600;19.682;2023-04-29T09:42:27;5.10;;;3.80;;
76591;SDS011;65481;47.600;19.682;2023-04-29T09:47:28;8.52;;;4.40;;
76591;SDS011;65481;47.600;19.682;2023-04-29T09:52:38;6.13;;;3.92;;
76591;SDS011;65481;47.600;19.682;2023-04-29T09:57:41;7.75;;;3.85;;
76591;SDS011;65481;47.600;19.682;2023-04-29T10:02:42;6.97;;;4.53;;
76591;SDS011;65481;47.600;19.682;2023-04-29T10:07:49;54.30;;;16.45;;
76591;SDS011;65481;47.600;19.682;2023-04-29T10:12:51;40.65;;;13.98;;
76591;SDS011;65481;47.600;19.682;2023-04-29T10:17:55;4.63;;;3.78;;
76591;SDS011;65481;47.600;19.682;2023-04-29T10:23:23;8.55;;;5.28;;
76591;SDS011;65481;47.600;19.682;2023-04-29T10:28:24;5.90;;;3.70;;
76591;SDS011;65481;47.600;19.682;2023-04-29T10:33:26;5.45;;;4.00;;
76591;SDS011;65481;47.600;19.682;2023-04-29T10:38:56;7.20;;;4.10;;
76591;SDS011;65481;47.600;19.682;2023-04-29T10:44:00;6.07;;;3.67;;
76591;SDS011;65481;47.600;19.682;2023-04-29T10:49:01;5.07;;;3.25;;
76591;SDS011;65481;47.600;19.682;2023-04-29T10:54:07;5.30;;;3.80;;
76591;SDS011;65481;47.600;19.682;2023-04-29T10:59:20;6.35;;;3.42;;
76591;SDS011;65481;47.600;19.682;2023-04-29T11:04:27;6.05;;;3.67;;
76591;SDS011;65481;47.600;19.682;2023-04-29T11:09:30;9.38;;;4.00;;
76591;SDS011;65481;47.600;19.682;2023-04-29T11:14:40;4.00;;;3.50;;
76591;SDS011;65481;47.600;19.682;2023-04-29T11:24:54;5.30;;;4.43;;
76591;SDS011;65481;47.600;19.682;2023-04-29T11:30:02;6.32;;;3.75;;
76591;SDS011;65481;47.600;19.682;2023-04-29T11:40:16;5.45;;;3.60;;
76591;SDS011;65481;47.600;19.682;2023-04-29T11:45:16;4.70;;;3.67;;
76591;SDS011;65481;47.600;19.682;2023-04-29T11:50:17;6.45;;;3.80;;
76591;SDS011;65481;47.600;19.682;2023-04-29T11:55:20;8.15;;;5.05;;
76591;SDS011;65481;47.600;19.682;2023-04-29T12:00:21;6.47;;;3.85;;
76591;SDS011;65481;47.600;19.682;2023-04-29T12:05:22;5.88;;;3.78;;
76591;SDS011;65481;47.600;19.682;2023-04-29T12:10:25;5.22;;;4.40;;
76591;SDS011;65481;47.600;19.682;2023-04-29T12:15:26;5.65;;;4.18;;
76591;SDS011;65481;47.600;19.682;2023-04-29T12:20:28;9.02;;;4.32;;
76591;SDS011;65481;47.600;19.682;2023-04-29T12:25:28;7.57;;;4.53;;
76591;SDS011;65481;47.600;19.682;2023-04-29T12:30:33;6.32;;;3.90;;
76591;SDS011;65481;47.600;19.682;2023-04-29T12:35:37;8.73;;;4.10;;
76591;SDS011;65481;47.600;19.682;2023-04-29T12:40:38;5.63;;;3.90;;
76591;SDS011;65481;47.600;19.682;2023-04-29T12:45:38;5.28;;;3.92;;
76591;SDS011;65481;47.600;19.682;2023-04-29T12:50:39;5.80;;;3.92;;
76591;SDS011;65481;47.600;19.682;2023-04-29T12:55:40;6.63;;;4.10;;
76591;SDS011;65481;47.600;19.682;2023-04-29T13:00:40;6.70;;;4.25;;
76591;SDS011;65481;47.600;19.682;2023-04-29T13:05:41;7.80;;;4.50;;
76591;SDS011;65481;47.600;19.682;2023-04-29T13:10:41;7.38;;;4.28;;
76591;SDS011;65481;47.600;19.682;2023-04-29T13:15:42;6.75;;;4.35;;
76591;SDS011;65481;47.600;19.682;2023-04-29T13:20:42;5.25;;;3.95;;
76591;SDS011;65481;47.600;19.682;2023-04-29T13:25:43;5.22;;;4.55;;
76591;SDS011;65481;47.600;19.682;2023-04-29T13:30:44;9.05;;;4.43;;
76591;SDS011;65481;47.600;19.682;2023-04-29T13:35:44;7.30;;;4.32;;
76591;SDS011;65481;47.600;19.682;2023-04-29T13:40:45;7.47;;;4.25;;
76591;SDS011;65481;47.600;19.682;2023-04-29T13:45:46;8.70;;;4.90;;
76591;SDS011;65481;47.600;19.682;2023-04-29T13:50:46;6.75;;;4.35;;
76591;SDS011;65481;47.600;19.682;2023-04-29T13:55:47;8.30;;;4.68;;
76591;SDS011;65481;47.600;19.682;2023-04-29T14:00:47;7.30;;;4.68;;
76591;SDS011;65481;47.600;19.682;2023-04-29T14:05:48;7.15;;;4.05;;
76591;SDS011;65481;47.600;19.682;2023-04-29T14:10:49;6.13;;;4.38;;
76591;SDS011;65481;47.600;19.682;2023-04-29T14:15:49;7.10;;;4.55;;
76591;SDS011;65481;47.600;19.682;2023-04-29T14:20:50;10.95;;;4.43;;
76591;SDS011;65481;47.600;19.682;2023-04-29T14:25:50;4.85;;;3.75;;
76591;SDS011;65481;47.600;19.682;2023-04-29T14:30:51;5.82;;;3.78;;
76591;SDS011;65481;47.600;19.682;2023-04-29T14:35:52;7.78;;;4.63;;
76591;SDS011;65481;47.600;19.682;2023-04-29T14:40:52;4.93;;;4.43;;
76591;SDS011;65481;47.600;19.682;2023-04-29T14:45:53;8.05;;;4.57;;
76591;SDS011;65481;47.600;19.682;2023-04-29T14:50:54;8.90;;;5.57;;
76591;SDS011;65481;47.600;19.682;2023-04-29T14:55:55;5.35;;;4.45;;
76591;SDS011;65481;47.600;19.682;2023-04-29T15:00:55;5.90;;;4.57;;
76591;SDS011;65481;47.600;19.682;2023-04-29T15:05:56;7.43;;;4.68;;
76591;SDS011;65481;47.600;19.682;2023-04-29T15:10:57;8.27;;;4.57;;
76591;SDS011;65481;47.600;19.682;2023-04-29T15:15:58;8.13;;;4.22;;
76591;SDS011;65481;47.600;19.682;2023-04-29T15:20:58;7.40;;;4.45;;
76591;SDS011;65481;47.600;19.682;2023-04-29T15:25:59;8.73;;;5.28;;
76591;SDS011;65481;47.600;19.682;2023-04-29T15:31:00;12.85;;;6.78;;
76591;SDS011;65481;47.600;19.682;2023-04-29T15:36:03;11.45;;;7.07;;
76591;SDS011;65481;47.600;19.682;2023-04-29T15:41:03;7.32;;;4.43;;
76591;SDS011;65481;47.600;19.682;2023-04-29T15:46:04;9.00;;;5.10;;
76591;SDS011;65481;47.600;19.682;2023-04-29T15:51:04;6.57;;;4.35;;
76591;SDS011;65481;47.600;19.682;2023-04-29T15:56:05;8.95;;;5.90;;
76591;SDS011;65481;47.600;19.682;2023-04-29T16:01:05;5.70;;;4.32;;
76591;SDS011;65481;47.600;19.682;2023-04-29T16:06:06;10.35;;;5.40;;
76591;SDS011;65481;47.600;19.682;2023-04-29T16:11:07;7.40;;;4.85;;
76591;SDS011;65481;47.600;19.682;2023-04-29T16:16:07;5.97;;;4.80;;
76591;SDS011;65481;47.600;19.682;2023-04-29T16:21:08;5.65;;;4.50;;
76591;SDS011;65481;47.600;19.682;2023-04-29T16:26:09;8.00;;;5.30;;
76591;SDS011;65481;47.600;19.682;2023-04-29T16:31:10;11.10;;;5.68;;
76591;SDS011;65481;47.600;19.682;2023-04-29T16:36:12;7.47;;;4.70;;
76591;SDS011;65481;47.600;19.682;2023-04-29T16:41:12;14.98;;;9.48;;
76591;SDS011;65481;47.600;19.682;2023-04-29T16:46:13;31.60;;;23.30;;
76591;SDS011;65481;47.600;19.682;2023-04-29T16:51:13;11.10;;;7.10;;
76591;SDS011;65481;47.600;19.682;2023-04-29T16:56:14;11.25;;;8.32;;
76591;SDS011;65481;47.600;19.682;2023-04-29T17:01:15;12.48;;;9.60;;
76591;SDS011;65481;47.600;19.682;2023-04-29T17:06:18;8.63;;;5.22;;
76591;SDS011;65481;47.600;19.682;2023-04-29T17:11:18;8.10;;;4.78;;
76591;SDS011;65481;47.600;19.682;2023-04-29T17:16:19;8.13;;;5.00;;
76591;SDS011;65481;47.600;19.682;2023-04-29T17:21:19;7.15;;;5.18;;
76591;SDS011;65481;47.600;19.682;2023-04-29T17:26:23;9.55;;;6.20;;
76591;SDS011;65481;47.600;19.682;2023-04-29T17:31:24;10.60;;;7.60;;
76591;SDS011;65481;47.600;19.682;2023-04-29T17:36:32;10.15;;;6.30;;
76591;SDS011;65481;47.600;19.682;2023-04-29T17:41:33;8.35;;;5.32;;
76591;SDS011;65481;47.600;19.682;2023-04-29T17:46:34;11.20;;;7.22;;
76591;SDS011;65481;47.600;19.682;2023-04-29T17:51:35;11.05;;;7.63;;
76591;SDS011;65481;47.600;19.682;2023-04-29T17:56:36;15.27;;;11.10;;
76591;SDS011;65481;47.600;19.682;2023-04-29T18:01:37;21.05;;;11.68;;
76591;SDS011;65481;47.600;19.682;2023-04-29T18:06:37;20.15;;;11.63;;
76591;SDS011;65481;47.600;19.682;2023-04-29T18:11:38;20.50;;;9.82;;
76591;SDS011;65481;47.600;19.682;2023-04-29T18:16:38;28.20;;;14.18;;
76591;SDS011;65481;47.600;19.682;2023-04-29T18:21:39;27.48;;;12.98;;
76591;SDS011;65481;47.600;19.682;2023-04-29T18:26:39;20.48;;;11.32;;
76591;SDS011;65481;47.600;19.682;2023-04-29T18:31:40;24.52;;;13.65;;
76591;SDS011;65481;47.600;19.682;2023-04-29T18:36:42;79.93;;;36.35;;
76591;SDS011;65481;47.600;19.682;2023-04-29T18:41:42;50.72;;;23.70;;
76591;SDS011;65481;47.600;19.682;2023-04-29T18:46:43;36.80;;;19.33;;
76591;SDS011;65481;47.600;19.682;2023-04-29T18:51:44;24.90;;;14.15;;
76591;SDS011;65481;47.600;19.682;2023-04-29T18:56:46;37.97;;;19.45;;
76591;SDS011;65481;47.600;19.682;2023-04-29T19:01:48;54.05;;;29.17;;
76591;SDS011;65481;47.600;19.682;2023-04-29T19:06:49;37.78;;;21.58;;
76591;SDS011;65481;47.600;19.682;2023-04-29T19:11:49;28.52;;;17.75;;
76591;SDS011;65481;47.600;19.682;2023-04-29T19:16:50;27.23;;;16.25;;
76591;SDS011;65481;47.600;19.682;2023-04-29T19:21:51;24.63;;;14.90;;
76591;SDS011;65481;47.600;19.682;2023-04-29T19:26:51;17.90;;;12.45;;
76591;SDS011;65481;47.600;19.682;2023-04-29T19:31:52;14.32;;;10.48;;
76591;SDS011;65481;47.600;19.682;2023-04-29T19:36:52;14.10;;;10.68;;
76591;SDS011;65481;47.600;19.682;2023-04-29T19:41:53;23.15;;;13.73;;
76591;SDS011;65481;47.600;19.682;2023-04-29T19:46:55;20.70;;;13.88;;
76591;SDS011;65481;47.600;19.682;2023-04-29T19:51:55;19.98;;;12.48;;
76591;SDS011;65481;47.600;19.682;2023-04-29T19:56:56;21.05;;;14.02;;
76591;SDS011;65481;47.600;19.682;2023-04-29T20:01:56;14.98;;;10.50;;
76591;SDS011;65481;47.600;19.682;2023-04-29T20:06:57;13.60;;;9.15;;
76591;SDS011;65481;47.600;19.682;2023-04-29T20:11:58;18.13;;;10.73;;
76591;SDS011;65481;47.600;19.682;2023-04-29T20:16:58;15.15;;;8.88;;
76591;SDS011;65481;47.600;19.682;2023-04-29T20:21:59;31.88;;;11.88;;
76591;SDS011;65481;47.600;19.682;2023-04-29T20:27:00;16.50;;;10.65;;
76591;SDS011;65481;47.600;19.682;2023-04-29T20:32:03;15.40;;;10.73;;
76591;SDS011;65481;47.600;19.682;2023-04-29T20:37:05;12.02;;;9.90;;
76591;SDS011;65481;47.600;19.682;2023-04-29T20:42:06;32.88;;;18.55;;
76591;SDS011;65481;47.600;19.682;2023-04-29T20:47:06;21.23;;;14.77;;
76591;SDS011;65481;47.600;19.682;2023-04-29T20:52:07;14.32;;;11.07;;
76591;SDS011;65481;47.600;19.682;2023-04-29T20:57:07;15.38;;;11.57;;
76591;SDS011;65481;47.600;19.682;2023-04-29T21:02:08;16.67;;;12.60;;
76591;SDS011;65481;47.600;19.682;2023-04-29T21:07:08;15.95;;;12.10;;
76591;SDS011;65481;47.600;19.682;2023-04-29T21:12:09;17.20;;;12.82;;
76591;SDS011;65481;47.600;19.682;2023-04-29T21:17:10;15.05;;;11.60;;
76591;SDS011;65481;47.600;19.682;2023-04-29T21:22:10;17.40;;;12.43;;
76591;SDS011;65481;47.600;19.682;2023-04-29T21:27:11;17.20;;;13.07;;
76591;SDS011;65481;47.600;19.682;2023-04-29T21:32:11;14.35;;;11.05;;
76591;SDS011;65481;47.600;19.682;2023-04-29T21:37:12;13.82;;;11.15;;
76591;SDS011;65481;47.600;19.682;2023-04-29T21:42:12;14.55;;;11.20;;
76591;SDS011;65481;47.600;19.682;2023-04-29T21:47:13;15.23;;;11.13;;
76591;SDS011;65481;47.600;19.682;2023-04-29T21:52:13;16.95;;;11.90;;
76591;SDS011;65481;47.600;19.682;2023-04-29T21:57:14;14.88;;;12.00;;
76591;SDS011;65481;47.600;19.682;2023-04-29T22:02:14;16.20;;;12.30;;
76591;SDS011;65481;47.600;19.682;2023-04-29T22:07:22;16.38;;;11.70;;
76591;SDS011;65481;47.600;19.682;2023-04-29T22:12:22;17.63;;;11.43;;
76591;SDS011;65481;47.600;19.682;2023-04-29T22:17:23;18.13;;;11.80;;
76591;SDS011;65481;47.600;19.682;2023-04-29T22:22:23;14.20;;;10.93;;
76591;SDS011;65481;47.600;19.682;2023-04-29T22:27:24;15.30;;;11.73;;
76591;SDS011;65481;47.600;19.682;2023-04-29T22:32:24;15.32;;;11.20;;
76591;SDS011;65481;47.600;19.682;2023-04-29T22:37:25;15.10;;;11.60;;
76591;SDS011;65481;47.600;19.682;2023-04-29T22:42:25;17.08;;;11.77;;
76591;SDS011;65481;47.600;19.682;2023-04-29T22:47:26;15.73;;;11.73;;
76591;SDS011;65481;47.600;19.682;2023-04-29T22:52:26;19.08;;;12.93;;
76591;SDS011;65481;47.600;19.682;2023-04-29T22:57:27;26.17;;;13.23;;
76591;SDS011;65481;47.600;19.682;2023-04-29T23:02:27;18.70;;;12.20;;
76591;SDS011;65481;47.600;19.682;2023-04-29T23:07:28;17.30;;;12.48;;
76591;SDS011;65481;47.600;19.682;2023-04-29T23:12:29;18.85;;;13.75;;
76591;SDS011;65481;47.600;19.682;2023-04-29T23:17:29;16.92;;;12.52;;
76591;SDS011;65481;47.600;19.682;2023-04-29T23:22:30;16.40;;;12.50;;
76591;SDS011;65481;47.600;19.682;2023-04-29T23:27:30;19.92;;;14.02;;
76591;SDS011;65481;47.600;19.682;2023-04-29T23:32:31;20.25;;;13.25;;
76591;SDS011;65481;47.600;19.682;2023-04-29T23:37:31;18.48;;;13.27;;
76591;SDS011;65481;47.600;19.682;2023-04-29T23:42:32;18.85;;;13.18;;
76591;SDS011;65481;47.600;19.682;2023-04-29T23:47:33;17.13;;;13.27;;
76591;SDS011;65481;47.600;19.682;2023-04-29T23:52:33;14.35;;;11.80;;
76591;SDS011;65481;47.600;19.682;2023-04-29T23:57:34;17.88;;;13.02;;
